Time;durP1;ratioP1;P1;durP2;ratioP2;P2;SDS_P1;SDS_P2;PMS_P1;PMS_P2;Temp;Humidity;BMP_temperature;BMP_pressure;BME280_temperature;BME280_humidity;BME280_pressure;Samples;Min_cycle;Max_cycle;Signal;HPM_P1;HPM_P2
2021/11/07 00:04:18;;;;;;;14.43;9.83;;;9.60;99.90;;;;;;5036013;28;20234;-49
2021/11/07 00:06:51;;;;;;;11.33;10.00;;;9.60;99.90;;;;;;5059593;28;21117;-49
2021/11/07 00:09:25;;;;;;;13.87;9.53;;;9.60;99.90;;;;;;5061745;28;20222;-51
2021/11/07 00:11:55;;;;;;;10.37;9.30;;;9.60;99.90;;;;;;5057323;28;20210;-48
2021/11/07 00:14:23;;;;;;;15.47;11.10;;;9.60;99.90;;;;;;5045313;28;20230;-53
2021/11/07 00:16:50;;;;;;;10.20;9.10;;;9.60;99.90;;;;;;5055103;28;20781;-48
2021/11/07 00:19:24;;;;;;;10.23;9.00;;;9.60;99.90;;;;;;5061294;28;20289;-52
2021/11/07 00:21:58;;;;;;;12.70;10.97;;;9.50;99.90;;;;;;5062275;28;20202;-49
2021/11/07 00:24:32;;;;;;;12.33;9.73;;;9.60;99.90;;;;;;5059769;28;20233;-51
2021/11/07 00:27:04;;;;;;;12.60;11.20;;;9.60;99.90;;;;;;5063525;28;20655;-46
2021/11/07 00:29:33;;;;;;;10.60;9.57;;;9.60;99.90;;;;;;5044179;28;20289;-48
2021/11/07 00:32:07;;;;;;;11.00;9.40;;;9.60;99.90;;;;;;5056221;28;20217;-49
2021/11/07 00:37:28;;;;;;;13.23;9.50;;;9.60;99.90;;;;;;5059813;28;20570;-51
2021/11/07 00:40:08;;;;;;;10.77;9.67;;;9.60;99.90;;;;;;5056460;28;20654;-47
2021/11/07 00:42:42;;;;;;;11.97;9.87;;;9.60;99.90;;;;;;5058915;28;20198;-48
2021/11/07 00:45:22;;;;;;;10.40;9.40;;;9.60;99.90;;;;;;5047880;28;20293;-47
2021/11/07 00:47:58;;;;;;;11.93;9.53;;;9.60;99.90;;;;;;5055065;28;23456;-48
2021/11/07 00:50:28;;;;;;;11.17;9.27;;;9.50;99.90;;;;;;5059345;28;20263;-48
2021/11/07 00:52:57;;;;;;;10.23;9.23;;;9.60;99.90;;;;;;5062352;28;20289;-47
2021/11/07 00:55:32;;;;;;;8.93;8.13;;;9.50;99.90;;;;;;5059883;28;20222;-49
2021/11/07 00:58:04;;;;;;;10.13;9.13;;;9.60;99.90;;;;;;5062760;28;20198;-50
2021/11/07 01:00:40;;;;;;;9.83;8.90;;;9.60;99.90;;;;;;5044317;28;20218;-47
2021/11/07 01:03:12;;;;;;;9.43;8.63;;;9.60;99.90;;;;;;5058456;28;20640;-48
2021/11/07 01:05:39;;;;;;;11.20;9.00;;;9.60;99.90;;;;;;5053490;28;20269;-48
2021/11/07 01:08:06;;;;;;;10.10;8.87;;;9.60;99.90;;;;;;5061996;28;20199;-45
2021/11/07 01:10:36;;;;;;;10.20;9.03;;;9.60;99.90;;;;;;5058896;28;20182;-47
2021/11/07 01:13:03;;;;;;;11.63;8.97;;;9.60;99.90;;;;;;5061235;28;20202;-51
2021/11/07 01:15:32;;;;;;;12.27;9.50;;;9.60;99.90;;;;;;5043280;28;20229;-49
2021/11/07 01:17:59;;;;;;;9.23;8.37;;;9.60;99.90;;;;;;5062312;28;20324;-47
2021/11/07 01:20:28;;;;;;;8.87;7.97;;;9.60;99.90;;;;;;5054894;28;20309;-49
2021/11/07 01:22:59;;;;;;;10.40;9.40;;;9.60;99.90;;;;;;5066330;28;20202;-47
2021/11/07 01:25:28;;;;;;;9.50;8.53;;;9.60;99.90;;;;;;5063276;28;20714;-49
2021/11/07 01:27:57;;;;;;;10.07;8.93;;;9.60;99.90;;;;;;5066356;28;20661;-50
2021/11/07 01:30:28;;;;;;;8.47;7.57;;;9.60;99.90;;;;;;5063447;28;20244;-50
2021/11/07 01:33:03;;;;;;;9.43;8.23;;;9.60;99.90;;;;;;5050719;28;20574;-49
2021/11/07 01:35:37;;;;;;;8.37;7.57;;;9.70;99.90;;;;;;5055213;28;20340;-48
2021/11/07 01:38:13;;;;;;;8.50;7.70;;;9.70;99.90;;;;;;5066323;28;20230;-48
2021/11/07 01:40:43;;;;;;;8.67;7.20;;;9.70;99.90;;;;;;5063479;28;20226;-50
2021/11/07 01:43:12;;;;;;;9.77;7.93;;;9.70;99.90;;;;;;5066124;28;20676;-48
2021/11/07 01:45:44;;;;;;;7.03;6.43;;;9.70;99.90;;;;;;5062963;28;20217;-46
2021/11/07 01:48:13;;;;;;;10.13;7.63;;;9.70;99.90;;;;;;5046432;28;20216;-51
2021/11/07 01:50:45;;;;;;;7.60;6.90;;;9.70;99.90;;;;;;5056466;28;20225;-47
2021/11/07 01:53:20;;;;;;;8.17;7.33;;;9.70;99.90;;;;;;5065183;28;20294;-51
2021/11/07 01:55:47;;;;;;;8.03;7.27;;;9.80;99.90;;;;;;5064700;28;20293;-51
2021/11/07 01:58:15;;;;;;;8.00;7.30;;;9.70;99.90;;;;;;5065125;28;20206;-50
2021/11/07 02:00:43;;;;;;;7.37;6.77;;;9.80;99.90;;;;;;5063904;28;20214;-52
2021/11/07 02:03:10;;;;;;;7.90;7.20;;;9.70;99.90;;;;;;5049052;28;20206;-51
2021/11/07 02:05:37;;;;;;;8.37;7.47;;;9.80;99.90;;;;;;5055693;28;20245;-46
2021/11/07 02:08:06;;;;;;;7.90;7.20;;;9.70;99.90;;;;;;5065457;28;20222;-48
2021/11/07 02:10:33;;;;;;;8.10;7.40;;;9.80;99.90;;;;;;5062017;28;20186;-46
2021/11/07 02:13:00;;;;;;;7.33;6.73;;;9.70;99.90;;;;;;5065599;28;20291;-47
2021/11/07 02:15:28;;;;;;;8.27;7.57;;;9.70;99.90;;;;;;5062031;28;20590;-50
2021/11/07 02:17:55;;;;;;;7.73;7.07;;;9.70;99.90;;;;;;5050829;28;20685;-48
2021/11/07 02:20:24;;;;;;;8.43;7.63;;;9.80;99.90;;;;;;5057493;28;20226;-46
2021/11/07 02:22:52;;;;;;;8.93;7.33;;;9.80;99.90;;;;;;5063634;28;20198;-49
2021/11/07 02:25:18;;;;;;;7.77;7.10;;;9.80;99.90;;;;;;5054696;28;20721;-52
2021/11/07 02:27:46;;;;;;;8.60;6.77;;;9.80;99.90;;;;;;5063673;28;20199;-50
2021/11/07 02:30:14;;;;;;;7.83;7.20;;;9.80;99.90;;;;;;5063742;28;20223;-48
2021/11/07 02:32:41;;;;;;;6.97;6.37;;;9.80;99.90;;;;;;5063238;28;20675;-51
2021/11/07 02:35:08;;;;;;;7.67;7.07;;;9.80;99.90;;;;;;5051012;28;20215;-46
2021/11/07 02:37:37;;;;;;;8.47;7.57;;;9.80;99.90;;;;;;5058405;28;20205;-52
2021/11/07 02:40:06;;;;;;;8.63;7.83;;;9.80;99.90;;;;;;5064724;28;20797;-49
2021/11/07 02:42:33;;;;;;;7.90;7.27;;;9.90;99.90;;;;;;5061223;28;20194;-50
2021/11/07 02:45:00;;;;;;;8.93;8.10;;;9.90;99.90;;;;;;5065086;28;20745;-48
2021/11/07 02:47:27;;;;;;;9.00;8.20;;;9.90;99.90;;;;;;5060915;28;20248;-48
2021/11/07 02:49:53;;;;;;;8.20;7.50;;;9.90;99.90;;;;;;5049465;28;20218;-49
2021/11/07 02:52:20;;;;;;;8.40;7.63;;;9.90;99.90;;;;;;5053539;28;20199;-53
2021/11/07 02:54:48;;;;;;;8.00;7.20;;;9.90;99.90;;;;;;5063911;28;20578;-49
2021/11/07 02:57:19;;;;;;;9.00;8.10;;;9.90;99.90;;;;;;5062931;28;20626;-52
2021/11/07 02:59:49;;;;;;;7.63;6.93;;;9.90;99.90;;;;;;5064124;28;20199;-51
2021/11/07 03:02:16;;;;;;;8.67;7.47;;;9.90;99.90;;;;;;5062769;28;20210;-47
2021/11/07 03:04:43;;;;;;;7.13;6.53;;;10.00;99.90;;;;;;5062669;28;20226;-48
2021/11/07 03:07:10;;;;;;;7.70;6.90;;;10.00;99.90;;;;;;5047180;28;20675;-47
2021/11/07 03:09:38;;;;;;;6.97;6.37;;;10.00;99.90;;;;;;5055399;28;20203;-50
2021/11/07 03:12:09;;;;;;;7.00;6.40;;;10.00;99.90;;;;;;5064185;28;20206;-48
2021/11/07 03:14:38;;;;;;;7.10;6.60;;;10.00;99.90;;;;;;5061476;28;20206;-48
2021/11/07 03:17:06;;;;;;;6.70;6.20;;;10.00;99.90;;;;;;5064179;28;20199;-51
2021/11/07 03:19:34;;;;;;;6.93;6.30;;;10.00;99.90;;;;;;5060596;28;20190;-49
2021/11/07 03:22:04;;;;;;;6.97;6.37;;;10.00;99.90;;;;;;5049051;28;20226;-46
2021/11/07 03:24:31;;;;;;;6.60;6.00;;;10.00;99.90;;;;;;5055479;28;20218;-49
2021/11/07 03:26:58;;;;;;;7.10;6.60;;;10.00;99.90;;;;;;5064262;28;20209;-50
2021/11/07 03:29:32;;;;;;;6.63;6.13;;;10.00;99.90;;;;;;5060441;28;20234;-50
2021/11/07 03:32:04;;;;;;;6.03;5.53;;;10.00;99.90;;;;;;5064218;28;20277;-50
2021/11/07 03:34:32;;;;;;;6.67;6.10;;;9.90;99.90;;;;;;5059757;28;20844;-48
2021/11/07 03:37:02;;;;;;;6.07;5.67;;;9.90;99.90;;;;;;5042450;28;20207;-49
2021/11/07 03:39:33;;;;;;;6.00;5.37;;;10.00;99.90;;;;;;5048606;28;20317;-49
2021/11/07 03:42:00;;;;;;;5.60;5.10;;;10.00;99.90;;;;;;5062850;28;20225;-49
2021/11/07 03:44:28;;;;;;;6.13;5.63;;;9.90;99.90;;;;;;5060185;28;20241;-45
2021/11/07 03:46:57;;;;;;;7.20;6.60;;;9.90;99.90;;;;;;5063784;28;20199;-47
2021/11/07 03:49:25;;;;;;;6.30;5.87;;;10.00;99.90;;;;;;5060144;28;20575;-50
2021/11/07 03:51:52;;;;;;;6.37;5.77;;;9.90;99.90;;;;;;5063347;28;20279;-47
2021/11/07 03:54:20;;;;;;;5.90;5.50;;;9.90;99.90;;;;;;5039641;28;20211;-49
2021/11/07 03:56:46;;;;;;;6.83;6.13;;;9.90;99.90;;;;;;5062615;28;20209;-49
2021/11/07 03:59:13;;;;;;;5.77;5.33;;;9.90;99.90;;;;;;5062802;28;20205;-50
2021/11/07 04:01:41;;;;;;;6.33;5.63;;;9.90;99.90;;;;;;5061292;28;20207;-46
2021/11/07 04:04:09;;;;;;;8.37;5.27;;;9.90;99.90;;;;;;5063323;28;20206;-49
2021/11/07 04:06:37;;;;;;;4.83;4.43;;;9.90;99.90;;;;;;5060679;28;20934;-49
2021/11/07 04:09:04;;;;;;;4.80;4.40;;;9.90;99.90;;;;;;5048925;28;20207;-47
2021/11/07 04:11:31;;;;;;;4.33;3.97;;;9.90;99.90;;;;;;5050675;28;20198;-46
2021/11/07 04:13:58;;;;;;;4.43;4.13;;;9.90;99.90;;;;;;5063081;28;20221;-48
2021/11/07 04:16:25;;;;;;;4.80;4.40;;;9.90;99.90;;;;;;5059531;28;20218;-52
2021/11/07 04:18:52;;;;;;;6.83;3.13;;;9.90;99.90;;;;;;5062983;28;20206;-48
2021/11/07 04:21:20;;;;;;;3.93;3.47;;;9.90;99.90;;;;;;5060333;28;20690;-49
2021/11/07 04:23:47;;;;;;;4.73;3.70;;;9.90;99.90;;;;;;5047582;28;20217;-47
2021/11/07 04:26:14;;;;;;;3.27;3.00;;;9.90;99.90;;;;;;5056950;28;20222;-49
2021/11/07 04:28:40;;;;;;;3.17;2.90;;;9.90;99.90;;;;;;5060989;28;20922;-50
2021/11/07 04:31:08;;;;;;;3.37;3.00;;;9.90;99.90;;;;;;5062920;28;20212;-48
2021/11/07 04:33:35;;;;;;;4.30;2.77;;;9.90;99.90;;;;;;5059720;28;20194;-49
2021/11/07 04:36:04;;;;;;;4.00;2.90;;;9.90;99.90;;;;;;5062654;28;20218;-47
2021/11/07 04:38:34;;;;;;;5.00;2.77;;;9.90;99.90;;;;;;5035384;28;20206;-48
2021/11/07 04:41:01;;;;;;;4.90;2.53;;;9.90;99.90;;;;;;5053744;28;20744;-46
2021/11/07 04:43:27;;;;;;;4.13;2.30;;;9.90;99.90;;;;;;5059021;28;21058;-46
2021/11/07 04:45:54;;;;;;;6.07;2.27;;;9.90;99.90;;;;;;5062488;28;20226;-47
2021/11/07 04:48:21;;;;;;;7.80;2.10;;;10.00;99.90;;;;;;5059759;28;20207;-46
2021/11/07 04:50:49;;;;;;;4.40;2.10;;;10.00;99.90;;;;;;5061640;28;20554;-49
2021/11/07 04:53:20;;;;;;;7.57;2.13;;;10.00;99.90;;;;;;5060810;28;20206;-50
2021/11/07 04:55:49;;;;;;;4.57;1.90;;;10.00;99.90;;;;;;5043572;28;20229;-47
2021/11/07 04:58:16;;;;;;;2.40;1.50;;;10.00;99.90;;;;;;5060760;28;20210;-45
2021/11/07 05:00:43;;;;;;;7.43;1.90;;;10.00;99.90;;;;;;5054421;28;20333;-46
2021/11/07 05:03:10;;;;;;;4.53;1.73;;;10.00;99.90;;;;;;5061495;28;20198;-49
2021/11/07 05:05:38;;;;;;;4.07;1.80;;;10.00;99.90;;;;;;5053128;28;22341;-49
2021/11/07 05:08:06;;;;;;;7.47;1.80;;;10.00;99.90;;;;;;5062355;28;20195;-47
2021/11/07 05:10:35;;;;;;;5.37;1.50;;;10.10;99.90;;;;;;5044171;28;24712;-45
2021/11/07 05:13:03;;;;;;;6.07;1.70;;;10.00;99.90;;;;;;5053894;28;20195;-45
2021/11/07 05:15:29;;;;;;;4.90;1.40;;;10.00;99.90;;;;;;5058758;28;21059;-45
2021/11/07 05:17:56;;;;;;;7.37;2.07;;;10.10;99.90;;;;;;5062634;28;20669;-47
2021/11/07 05:20:23;;;;;;;7.03;1.27;;;10.10;99.90;;;;;;5058712;28;20293;-50
2021/11/07 05:22:50;;;;;;;7.10;1.70;;;10.10;99.90;;;;;;5056693;28;20371;-45
2021/11/07 05:25:17;;;;;;;5.30;1.60;;;10.00;99.90;;;;;;5051316;28;20679;-50
2021/11/07 05:27:45;;;;;;;10.50;2.40;;;10.00;99.90;;;;;;5049014;28;20198;-46
2021/11/07 05:30:14;;;;;;;6.07;1.40;;;10.00;99.90;;;;;;5061547;28;20206;-51
2021/11/07 05:32:41;;;;;;;6.07;1.60;;;9.90;99.90;;;;;;5058385;28;20226;-48
2021/11/07 05:35:09;;;;;;;9.83;2.10;;;9.90;99.90;;;;;;5060812;28;20324;-46
2021/11/07 05:37:36;;;;;;;8.17;1.30;;;9.90;99.90;;;;;;5060282;28;20202;-50
2021/11/07 05:40:04;;;;;;;8.20;2.00;;;9.90;99.90;;;;;;5059465;28;20186;-45
2021/11/07 05:42:30;;;;;;;8.47;1.87;;;9.90;99.90;;;;;;5040729;28;20313;-49
2021/11/07 05:44:59;;;;;;;5.57;1.90;;;9.90;99.90;;;;;;5057615;28;20219;-48
2021/11/07 05:47:26;;;;;;;12.77;2.30;;;9.90;99.90;;;;;;5059999;28;20234;-45
2021/11/07 05:49:53;;;;;;;13.17;2.00;;;9.90;99.90;;;;;;5058123;28;20198;-45
2021/11/07 05:52:19;;;;;;;8.47;2.07;;;9.80;99.90;;;;;;5061744;28;20190;-50
2021/11/07 05:54:46;;;;;;;8.40;1.83;;;9.80;99.90;;;;;;5058878;28;20223;-49
2021/11/07 05:57:13;;;;;;;10.67;1.97;;;9.80;99.90;;;;;;5043718;28;20214;-49
2021/11/07 05:59:40;;;;;;;6.77;1.93;;;9.80;99.90;;;;;;5053861;28;20562;-48
2021/11/07 06:02:08;;;;;;;10.33;2.07;;;9.80;99.90;;;;;;5060200;28;20211;-45
2021/11/07 06:04:35;;;;;;;10.50;2.10;;;9.70;99.90;;;;;;5060024;28;20234;-50
2021/11/07 06:07:01;;;;;;;9.57;2.17;;;9.70;99.90;;;;;;5062209;28;20213;-46
2021/11/07 06:09:28;;;;;;;10.43;1.87;;;9.70;99.90;;;;;;5065949;28;20211;-51
2021/11/07 06:11:55;;;;;;;10.90;2.63;;;9.70;99.90;;;;;;5046268;28;20292;-48
2021/11/07 06:14:22;;;;;;;8.97;1.97;;;9.70;99.90;;;;;;5053093;28;20206;-50
2021/11/07 06:16:48;;;;;;;13.80;2.50;;;9.70;99.90;;;;;;5059310;28;20667;-51
2021/11/07 06:19:16;;;;;;;8.30;1.97;;;9.70;99.90;;;;;;5065549;28;20202;-51
2021/11/07 06:21:45;;;;;;;10.97;2.20;;;9.70;99.90;;;;;;5062316;28;20215;-50
2021/11/07 06:24:14;;;;;;;9.87;2.20;;;9.70;99.90;;;;;;5058541;28;20651;-47
2021/11/07 06:26:41;;;;;;;6.77;1.83;;;9.70;99.90;;;;;;5058827;28;20663;-48
2021/11/07 06:29:08;;;;;;;11.90;2.93;;;9.70;99.90;;;;;;5040607;28;20213;-53
2021/11/07 06:31:34;;;;;;;9.93;2.17;;;9.70;99.90;;;;;;5052355;28;20655;-51
2021/11/07 06:34:01;;;;;;;7.93;2.33;;;9.70;99.90;;;;;;5057401;28;20226;-50
2021/11/07 06:36:29;;;;;;;12.37;2.80;;;9.70;99.90;;;;;;5056150;28;20230;-53
2021/11/07 06:38:57;;;;;;;12.43;2.20;;;9.70;99.90;;;;;;5054823;28;20466;-53
2021/11/07 06:41:23;;;;;;;7.93;2.17;;;9.80;99.90;;;;;;5059201;28;20210;-51
2021/11/07 06:43:51;;;;;;;11.17;2.57;;;9.70;99.90;;;;;;5049497;28;20221;-49
2021/11/07 06:46:17;;;;;;;11.77;2.50;;;9.80;99.90;;;;;;5053982;28;20583;-51
2021/11/07 06:48:44;;;;;;;13.83;2.70;;;9.70;99.90;;;;;;5052772;28;20206;-47
2021/11/07 06:51:11;;;;;;;11.37;2.23;;;9.80;99.90;;;;;;5054323;28;20667;-47
2021/11/07 06:53:39;;;;;;;13.13;2.77;;;9.80;99.90;;;;;;5052632;28;20206;-51
2021/11/07 06:56:06;;;;;;;12.50;2.83;;;9.80;99.90;;;;;;5065525;28;20211;-46
2021/11/07 06:58:33;;;;;;;10.43;2.53;;;9.80;99.90;;;;;;5048760;28;20256;-50
2021/11/07 07:01:00;;;;;;;14.83;3.30;;;9.80;99.90;;;;;;5054081;28;20943;-48
2021/11/07 07:03:26;;;;;;;14.73;3.10;;;9.80;99.90;;;;;;5063075;28;20237;-49
2021/11/07 07:05:54;;;;;;;17.27;2.80;;;9.90;99.90;;;;;;5057060;28;21268;-49
2021/11/07 07:08:24;;;;;;;11.07;2.57;;;9.90;99.90;;;;;;5064915;28;20206;-52
2021/11/07 07:10:55;;;;;;;15.30;3.17;;;10.00;99.90;;;;;;5051675;28;20686;-49
2021/11/07 07:13:26;;;;;;;8.30;1.80;;;9.90;99.90;;;;;;5072011;28;20683;-46
2021/11/07 07:16:02;;;;;;;7.87;1.83;;;9.70;99.90;;;;;;5038454;28;20227;-48
2021/11/07 07:18:36;;;;;;;4.93;1.50;;;9.50;99.90;;;;;;5058334;28;20535;-51
2021/11/07 07:21:12;;;;;;;8.00;1.97;;;9.20;99.90;;;;;;5059341;28;20215;-51
2021/11/07 07:26:42;;;;;;;6.47;1.20;;;9.00;99.90;;;;;;5061705;28;20214;-52
2021/11/07 07:29:19;;;;;;;9.33;2.13;;;8.90;99.90;;;;;;5061168;28;20195;-48
2021/11/07 07:31:52;;;;;;;8.50;2.03;;;8.80;99.90;;;;;;5047121;28;20202;-48
2021/11/07 07:34:21;;;;;;;6.97;2.10;;;8.80;99.90;;;;;;5058747;28;20200;-48
2021/11/07 07:36:48;;;;;;;10.10;1.97;;;8.80;99.90;;;;;;5052459;28;20198;-51
2021/11/07 07:39:15;;;;;;;7.70;1.90;;;8.80;99.90;;;;;;5060720;28;20351;-48
2021/11/07 07:41:43;;;;;;;14.90;2.13;;;8.80;99.90;;;;;;5057082;28;20202;-48
2021/11/07 07:44:09;;;;;;;10.33;1.60;;;8.80;99.90;;;;;;5056644;28;20924;-49
2021/11/07 07:46:37;;;;;;;12.67;2.20;;;8.80;99.90;;;;;;5048352;28;20207;-46
2021/11/07 07:49:04;;;;;;;11.87;2.00;;;8.80;99.90;;;;;;5058393;28;20576;-52
2021/11/07 07:51:31;;;;;;;10.20;2.13;;;8.80;99.90;;;;;;5051593;28;20237;-50
2021/11/07 07:54:00;;;;;;;12.17;2.53;;;8.80;99.90;;;;;;5062672;28;20206;-52
2021/11/07 07:56:27;;;;;;;10.07;1.67;;;8.80;99.90;;;;;;5057203;28;20981;-51
2021/11/07 07:58:55;;;;;;;9.40;1.73;;;8.80;99.90;;;;;;5064237;28;20202;-48
2021/11/07 08:01:23;;;;;;;6.23;1.60;;;8.80;99.90;;;;;;5046588;28;20662;-50
2021/11/07 08:03:50;;;;;;;6.90;1.70;;;8.80;99.90;;;;;;5064760;28;20218;-49
2021/11/07 08:06:16;;;;;;;9.17;1.80;;;8.80;99.90;;;;;;5061603;28;20238;-52
2021/11/07 08:08:43;;;;;;;9.43;2.10;;;8.90;99.90;;;;;;5054826;28;20432;-46
2021/11/07 08:11:10;;;;;;;11.03;2.00;;;9.00;99.90;;;;;;5064327;28;20214;-48
2021/11/07 08:13:36;;;;;;;7.60;1.97;;;9.00;99.90;;;;;;5058985;28;20502;-49
2021/11/07 08:16:06;;;;;;;11.43;1.90;;;9.00;99.90;;;;;;5065332;28;20219;-53
2021/11/07 08:18:33;;;;;;;10.70;2.13;;;9.10;99.90;;;;;;5045097;28;20419;-47
2021/11/07 08:21:00;;;;;;;9.37;1.93;;;9.10;99.90;;;;;;5063140;28;20572;-53
2021/11/07 08:23:27;;;;;;;9.43;1.90;;;9.20;99.90;;;;;;5049436;28;20230;-49
2021/11/07 08:25:54;;;;;;;9.33;1.80;;;9.30;99.90;;;;;;5062504;28;20215;-49
2021/11/07 08:28:21;;;;;;;15.83;2.00;;;9.40;99.90;;;;;;5054645;28;20206;-59
2021/11/07 08:30:52;;;;;;;12.97;1.73;;;9.40;99.90;;;;;;5062661;28;20232;-60
2021/11/07 08:33:21;;;;;;;12.57;2.20;;;9.50;99.90;;;;;;5046731;28;20571;-59
2021/11/07 08:35:49;;;;;;;14.97;2.20;;;9.60;99.90;;;;;;5052280;28;20594;-59
2021/11/07 08:38:19;;;;;;;10.90;2.10;;;9.80;99.90;;;;;;5060280;28;20213;-59
2021/11/07 08:40:48;;;;;;;9.13;2.30;;;10.00;99.90;;;;;;5052738;28;20293;-55
2021/11/07 09:00:15;;;;;;;5.87;1.90;;;7.90;99.90;;;;;;5050790;28;20202;-60
2021/11/07 09:00:19;;;;;;;3.83;0.97;;;7.60;99.90;;;;;;5057783;28;20304;-60
2021/11/07 09:05:34;;;;;;;2.90;0.80;;;7.70;99.90;;;;;;5061298;28;20246;-60
2021/11/07 09:08:13;;;;;;;5.00;1.43;;;7.80;99.90;;;;;;5060242;28;21001;-60
2021/11/07 09:10:40;;;;;;;7.90;1.30;;;7.80;99.90;;;;;;5051617;28;20202;-61
2021/11/07 09:13:09;;;;;;;6.33;1.20;;;7.90;99.90;;;;;;5062195;28;20202;-61
2021/11/07 09:15:38;;;;;;;7.00;2.10;;;8.00;99.90;;;;;;5044988;28;20230;-62
2021/11/07 09:18:05;;;;;;;8.73;1.60;;;8.10;99.90;;;;;;5051393;28;20207;-62
2021/11/07 09:20:40;;;;;;;4.53;1.10;;;8.10;99.90;;;;;;5040347;28;20706;-60
2021/11/07 09:23:11;;;;;;;5.17;1.53;;;8.20;99.90;;;;;;5051679;28;20263;-60
2021/11/07 09:25:41;;;;;;;7.03;1.40;;;8.20;99.90;;;;;;5057208;28;20862;-61
2021/11/07 09:28:10;;;;;;;8.87;1.40;;;8.30;99.90;;;;;;5056131;28;20207;-62
2021/11/07 09:30:43;;;;;;;2.83;1.10;;;8.30;99.90;;;;;;5053414;28;20293;-61
2021/11/07 09:33:14;;;;;;;5.00;1.00;;;8.20;99.90;;;;;;5060234;28;20212;-61
2021/11/07 09:35:59;;;;;;;6.57;1.00;;;8.10;99.90;;;;;;5042589;28;20229;-61
2021/11/07 09:38:29;;;;;;;5.80;1.10;;;8.10;99.90;;;;;;5044782;28;20206;-62
2021/11/07 09:41:11;;;;;;;2.77;1.20;;;8.00;99.90;;;;;;5055334;28;20209;-61
2021/11/07 09:43:44;;;;;;;8.43;1.40;;;8.00;99.90;;;;;;5051470;28;20214;-61
2021/11/07 09:46:20;;;;;;;5.77;1.70;;;8.10;99.90;;;;;;5054111;28;20223;-61
2021/11/07 09:48:53;;;;;;;11.43;2.20;;;8.20;99.90;;;;;;5064314;28;20198;-61
2021/11/07 09:51:23;;;;;;;10.03;1.80;;;8.40;99.90;;;;;;5047109;28;20309;-60
2021/11/07 09:53:54;;;;;;;12.77;2.20;;;8.50;99.90;;;;;;5057260;28;20659;-62
2021/11/07 09:56:22;;;;;;;9.30;2.17;;;8.60;99.90;;;;;;5058405;28;20299;-61
2021/11/07 09:58:51;;;;;;;11.37;1.87;;;8.70;99.90;;;;;;5059599;28;20266;-62
2021/11/07 10:01:19;;;;;;;10.93;2.47;;;8.80;99.90;;;;;;5050976;28;20202;-62
2021/11/07 10:03:46;;;;;;;13.50;2.57;;;8.30;99.90;;;;;;5059068;28;20219;-61
2021/11/07 10:06:27;;;;;;;9.23;3.30;;;9.10;99.90;;;;;;5039823;28;20254;-61
2021/11/07 10:08:54;;;;;;;12.23;3.33;;;9.20;99.90;;;;;;5053394;28;20993;-61
2021/11/07 10:11:26;;;;;;;12.50;2.50;;;9.30;99.90;;;;;;5065234;28;20260;-61
2021/11/07 10:14:10;;;;;;;11.77;2.30;;;9.50;99.90;;;;;;5051676;28;20637;-61
2021/11/07 10:16:42;;;;;;;7.63;2.60;;;9.60;99.90;;;;;;5049771;28;20206;-62
2021/11/07 10:19:23;;;;;;;12.37;2.30;;;9.70;99.90;;;;;;5052494;28;20207;-62
2021/11/07 10:21:52;;;;;;;11.43;2.70;;;9.80;99.90;;;;;;5040061;28;20206;-61
2021/11/07 10:24:23;;;;;;;14.23;2.10;;;9.80;99.90;;;;;;5060848;28;20221;-59
2021/11/07 10:26:56;;;;;;;9.67;2.47;;;9.80;99.90;;;;;;5056198;28;20207;-61
2021/11/07 10:29:25;;;;;;;10.00;2.60;;;9.80;99.90;;;;;;5058249;28;20232;-60
2021/11/07 10:31:59;;;;;;;7.03;2.17;;;9.90;99.90;;;;;;5050296;28;20206;-60
2021/11/07 10:37:33;;;;;;;8.67;2.07;;;9.80;99.90;;;;;;5041804;28;20209;-60
2021/11/07 10:40:22;;;;;;;6.40;1.97;;;9.70;99.90;;;;;;5049068;28;21094;-60
2021/11/07 10:45:57;;;;;;;11.47;2.07;;;9.60;99.90;;;;;;5057004;28;20280;-60
2021/11/07 10:52:03;;;;;;;11.80;2.23;;;9.60;99.90;;;;;;5052679;28;20211;-60
2021/11/07 10:54:16;;;;;;;10.93;2.30;;;9.60;99.90;;;;;;5045421;28;20206;-59
2021/11/07 10:56:42;;;;;;;10.20;1.90;;;9.60;99.90;;;;;;5054910;28;20198;-60
2021/11/07 10:59:14;;;;;;;13.57;2.37;;;9.50;99.90;;;;;;5051066;28;20203;-59
2021/11/07 11:01:43;;;;;;;12.17;2.83;;;9.50;99.90;;;;;;5050817;28;20211;-60
2021/11/07 11:04:11;;;;;;;13.63;2.83;;;9.40;99.90;;;;;;5051009;28;20222;-59
2021/11/07 11:06:38;;;;;;;7.27;2.37;;;9.40;99.90;;;;;;5056005;28;20198;-59
2021/11/07 11:09:14;;;;;;;10.67;2.43;;;9.40;99.90;;;;;;5044237;28;20289;-59
2021/11/07 11:11:43;;;;;;;13.53;2.63;;;9.40;99.90;;;;;;5057458;28;20281;-60
2021/11/07 11:14:16;;;;;;;12.60;3.07;;;9.40;99.90;;;;;;5055310;28;20190;-59
2021/11/07 11:16:50;;;;;;;10.50;2.47;;;9.40;99.90;;;;;;5057238;28;20256;-59
2021/11/07 11:19:41;;;;;;;13.33;2.53;;;9.50;99.90;;;;;;5054229;28;20400;-59
2021/11/07 11:28:06;;;;;;;13.43;2.50;;;9.60;99.90;;;;;;5057731;28;20233;-58
2021/11/07 11:33:31;;;;;;;7.33;2.30;;;9.50;99.90;;;;;;5040864;28;20211;-61
2021/11/07 11:36:11;;;;;;;9.90;1.67;;;9.30;99.90;;;;;;5047989;28;20313;-58
2021/11/07 11:38:44;;;;;;;7.57;1.60;;;9.20;99.90;;;;;;5052567;28;20604;-59
2021/11/07 11:41:15;;;;;;;6.97;1.27;;;9.10;99.90;;;;;;5059065;28;20199;-59
2021/11/07 11:43:46;;;;;;;5.80;1.37;;;9.00;99.90;;;;;;5058748;28;20224;-58
2021/11/07 11:46:20;;;;;;;6.20;1.47;;;9.00;99.90;;;;;;5057563;28;20218;-59
2021/11/07 11:49:16;;;;;;;5.90;1.37;;;8.90;99.90;;;;;;5053680;28;20213;-58
2021/11/07 11:57:39;;;;;;;12.47;2.80;;;8.80;99.90;;;;;;5062339;28;20618;-59
2021/11/07 12:00:31;;;;;;;7.73;2.00;;;8.90;99.90;;;;;;5057729;28;20202;-59
2021/11/07 12:03:03;;;;;;;11.57;2.03;;;9.00;99.90;;;;;;5053097;28;20199;-58
2021/11/07 12:05:39;;;;;;;6.57;1.27;;;9.10;99.90;;;;;;5054662;28;20922;-60
2021/11/07 12:08:19;;;;;;;7.67;1.33;;;9.20;99.90;;;;;;5056140;28;20284;-59
2021/11/07 12:10:54;;;;;;;8.77;1.67;;;9.40;99.90;;;;;;5044012;28;20221;-59
2021/11/07 12:13:36;;;;;;;7.53;1.80;;;9.50;99.90;;;;;;5061555;28;20194;-58
2021/11/07 12:16:11;;;;;;;6.80;1.60;;;9.70;99.90;;;;;;5056138;28;20214;-59
2021/11/07 12:18:59;;;;;;;8.67;1.90;;;9.90;99.90;;;;;;5052307;28;20233;-58
2021/11/07 12:21:46;;;;;;;13.20;3.03;;;10.20;99.90;;;;;;5061236;28;20566;-59
2021/11/07 12:24:13;;;;;;;17.83;2.53;;;10.40;99.90;;;;;;5067680;28;20210;-60
2021/11/07 12:26:39;;;;;;;14.13;2.53;;;10.40;99.90;;;;;;5063496;28;20195;-59
2021/11/07 12:29:07;;;;;;;8.77;2.53;;;10.50;99.90;;;;;;5048015;28;20218;-58
2021/11/07 12:31:35;;;;;;;13.50;3.00;;;10.50;99.90;;;;;;5058863;28;20434;-59
2021/11/07 12:34:08;;;;;;;10.43;2.37;;;10.50;99.90;;;;;;5061168;28;20205;-60
2021/11/07 12:42:18;;;;;;;7.73;2.20;;;10.70;99.90;;;;;;5037374;28;20230;-60
2021/11/07 12:44:48;;;;;;;9.40;2.27;;;10.70;99.90;;;;;;5061019;28;20318;-59
2021/11/07 12:47:22;;;;;;;11.43;2.20;;;10.70;99.90;;;;;;5058252;28;20202;-60
2021/11/07 12:49:56;;;;;;;9.80;2.77;;;10.60;99.90;;;;;;5061417;28;20221;-58
2021/11/07 12:52:23;;;;;;;15.00;2.87;;;10.40;99.90;;;;;;5055801;28;20200;-59
2021/11/07 12:54:49;;;;;;;16.73;2.57;;;10.20;99.90;;;;;;5059427;28;20221;-59
2021/11/07 12:57:19;;;;;;;11.90;2.83;;;10.10;99.90;;;;;;5045704;28;20210;-59
2021/11/07 12:59:51;;;;;;;10.83;1.43;;;9.90;99.90;;;;;;5057961;28;20198;-59
2021/11/07 13:02:25;;;;;;;5.20;1.27;;;9.60;99.90;;;;;;5057587;28;20198;-59
2021/11/07 13:04:57;;;;;;;5.77;1.20;;;9.10;99.90;;;;;;5061262;28;20238;-59
2021/11/07 13:07:28;;;;;;;6.70;1.70;;;8.90;99.90;;;;;;5055940;28;20261;-58
2021/11/07 13:09:58;;;;;;;6.10;1.40;;;8.70;99.90;;;;;;5060641;28;20210;-59
2021/11/07 13:12:29;;;;;;;4.13;1.10;;;8.70;99.90;;;;;;5058849;28;20182;-59
2021/11/07 13:24:01;;;;;;;8.83;1.70;;;9.00;99.90;;;;;;5062439;28;20214;-58
2021/11/07 13:26:38;;;;;;;6.47;1.47;;;9.00;99.90;;;;;;5047536;28;20268;-59
2021/11/07 13:31:59;;;;;;;12.47;2.30;;;8.90;99.90;;;;;;5044401;28;20210;-58
2021/11/07 13:34:28;;;;;;;9.40;1.90;;;8.90;99.90;;;;;;5067429;28;20676;-58
2021/11/07 13:36:56;;;;;;;7.50;1.87;;;8.90;99.90;;;;;;5067231;28;20194;-59
2021/11/07 13:39:26;;;;;;;7.70;1.90;;;8.90;99.90;;;;;;5061530;28;20230;-59
2021/11/07 13:41:55;;;;;;;5.53;1.67;;;8.90;99.90;;;;;;5065137;28;20675;-58
2021/11/07 13:44:25;;;;;;;8.63;1.90;;;8.90;99.90;;;;;;5060519;28;20211;-59
2021/11/07 13:46:54;;;;;;;6.07;1.80;;;8.90;99.90;;;;;;5041458;28;20253;-58
2021/11/07 13:49:21;;;;;;;5.53;1.30;;;8.90;99.90;;;;;;5060129;28;20210;-58
2021/11/07 13:51:55;;;;;;;5.10;1.40;;;8.90;99.90;;;;;;5061235;28;20213;-58
2021/11/07 13:54:23;;;;;;;3.13;1.30;;;8.90;99.90;;;;;;5062020;28;20209;-58
2021/11/07 13:56:51;;;;;;;8.20;1.47;;;8.90;99.90;;;;;;5065869;28;20558;-58
2021/11/07 13:59:33;;;;;;;7.13;1.93;;;8.80;99.90;;;;;;5061613;28;20203;-58
2021/11/07 14:02:01;;;;;;;6.27;1.50;;;8.80;99.90;;;;;;5043560;28;20186;-58
2021/11/07 14:04:40;;;;;;;7.17;1.70;;;8.80;99.90;;;;;;5062313;28;20223;-59
2021/11/07 14:07:24;;;;;;;7.47;1.60;;;8.80;99.90;;;;;;5057449;28;20210;-59
2021/11/07 14:10:00;;;;;;;5.73;1.37;;;8.80;99.90;;;;;;5059846;28;20643;-58
2021/11/07 14:12:34;;;;;;;6.97;1.83;;;8.70;99.90;;;;;;5059188;28;20203;-58
2021/11/07 14:15:07;;;;;;;8.93;1.47;;;8.70;99.90;;;;;;5056014;28;20942;-58